createdAt,value
2018-11-02T00:01:40.181Z,22.70
2018-11-02T00:04:09.199Z,26.27
2018-11-02T00:06:38.135Z,22.23
2018-11-02T00:09:07.609Z,21.57
2018-11-02T00:11:36.713Z,25.37
2018-11-02T00:14:05.634Z,21.90
2018-11-02T00:16:34.534Z,22.90
2018-11-02T00:19:03.944Z,21.37
2018-11-02T00:21:32.933Z,19.87
2018-11-02T00:24:01.849Z,22.57
2018-11-02T00:26:30.778Z,26.00
2018-11-02T00:28:59.760Z,22.90
2018-11-02T00:31:28.796Z,19.90
2018-11-02T00:33:57.746Z,19.13
2018-11-02T00:36:26.655Z,21.80
2018-11-02T00:38:55.745Z,21.53
2018-11-02T00:41:24.658Z,19.63
2018-11-02T00:43:53.575Z,22.03
2018-11-02T00:46:22.605Z,22.43
2018-11-02T00:48:51.513Z,21.53
2018-11-02T00:51:20.409Z,18.23
2018-11-02T00:53:49.353Z,17.70
2018-11-02T00:56:18.286Z,22.57
2018-11-02T00:58:47.246Z,20.23
2018-11-02T01:01:16.153Z,21.13
2018-11-02T01:03:45.054Z,17.43
2018-11-02T01:06:14.058Z,22.40
2018-11-02T01:08:43.109Z,26.30
2018-11-02T01:11:12.006Z,21.07
2018-11-02T01:13:40.973Z,20.00
2018-11-02T01:16:09.994Z,20.60
2018-11-02T01:18:38.935Z,21.27
2018-11-02T01:21:07.909Z,21.10
2018-11-02T01:23:36.835Z,21.93
2018-11-02T01:26:06.289Z,21.33
2018-11-02T01:28:35.542Z,21.27
2018-11-02T01:31:04.992Z,22.40
2018-11-02T01:33:39.412Z,19.17
2018-11-02T01:36:10.150Z,21.63
2018-11-02T01:38:39.442Z,18.70
2018-11-02T01:41:08.354Z,22.17
2018-11-02T01:43:37.321Z,18.47
2018-11-02T01:46:06.317Z,18.73
2018-11-02T01:48:35.185Z,15.60
2018-11-02T01:51:04.177Z,18.70
2018-11-02T01:53:33.125Z,21.83
2018-11-02T01:56:02.046Z,19.07
2018-11-02T01:58:30.993Z,21.37
2018-11-02T02:00:59.957Z,19.43
2018-11-02T02:03:28.910Z,22.80
2018-11-02T02:05:57.901Z,20.47
2018-11-02T02:08:26.814Z,21.33
2018-11-02T02:10:55.779Z,20.43
2018-11-02T02:13:24.820Z,22.50
2018-11-02T02:15:53.677Z,20.67
2018-11-02T02:18:22.569Z,23.43
2018-11-02T02:20:51.485Z,27.50
2018-11-02T02:23:21.297Z,20.40
2018-11-02T02:25:50.202Z,20.33
2018-11-02T02:28:19.249Z,22.67
2018-11-02T02:30:48.254Z,26.50
2018-11-02T02:33:17.424Z,23.87
2018-11-02T02:35:46.329Z,21.57
2018-11-02T02:38:15.238Z,24.53
2018-11-02T02:40:44.191Z,21.37
2018-11-02T02:43:13.134Z,22.57
2018-11-02T02:45:42.019Z,25.57
2018-11-02T02:48:10.921Z,26.50
2018-11-02T02:50:39.841Z,17.77
2018-11-02T02:53:08.743Z,24.63
2018-11-02T02:55:37.686Z,20.77
2018-11-02T02:58:06.670Z,19.90
2018-11-02T03:00:35.689Z,29.20
2018-11-02T03:03:04.677Z,21.23
2018-11-02T03:05:33.697Z,25.43
2018-11-02T03:08:02.688Z,24.13
2018-11-02T03:10:31.601Z,21.63
2018-11-02T03:13:00.565Z,24.27
2018-11-02T03:15:29.446Z,29.97
2018-11-02T03:17:58.401Z,24.03
2018-11-02T03:20:27.306Z,26.40
2018-11-02T03:22:56.181Z,27.47
2018-11-02T03:25:25.102Z,26.30
2018-11-02T03:27:54.042Z,25.43
2018-11-02T03:30:22.976Z,23.80
2018-11-02T03:32:51.893Z,26.07
2018-11-02T03:35:20.831Z,27.83
2018-11-02T03:37:49.749Z,25.17
2018-11-02T03:40:18.663Z,23.90
2018-11-02T03:42:47.813Z,25.23
2018-11-02T03:45:16.812Z,28.40
2018-11-02T03:47:45.709Z,28.57
2018-11-02T03:50:14.645Z,30.17
2018-11-02T03:52:43.534Z,30.53
2018-11-02T03:55:12.486Z,30.40
2018-11-02T03:57:41.401Z,28.33
2018-11-02T04:00:10.789Z,29.33
2018-11-02T04:02:40.307Z,28.53
2018-11-02T04:05:15.723Z,27.73
2018-11-02T04:07:44.783Z,26.43
2018-11-02T04:10:13.702Z,30.53
2018-11-02T04:12:42.677Z,30.03
2018-11-02T04:15:11.742Z,23.73
2018-11-02T04:17:40.740Z,26.30
2018-11-02T04:20:10.409Z,32.03
2018-11-02T04:22:39.409Z,33.50
2018-11-02T04:25:08.353Z,32.87
2018-11-02T04:27:37.359Z,24.70
2018-11-02T04:30:07.041Z,28.93
2018-11-02T04:32:35.962Z,30.47
2018-11-02T04:35:04.977Z,28.70
2018-11-02T04:37:33.878Z,29.40
2018-11-02T04:40:02.784Z,31.40
2018-11-02T04:42:31.713Z,30.17
2018-11-02T04:45:00.626Z,28.53
2018-11-02T04:47:29.513Z,26.53
2018-11-02T04:49:58.454Z,30.77
2018-11-02T04:52:27.382Z,34.83
2018-11-02T04:54:56.291Z,26.77
2018-11-02T04:57:25.213Z,27.30
2018-11-02T04:59:54.148Z,29.20
2018-11-02T05:02:23.193Z,28.60
2018-11-02T05:04:52.133Z,32.93
2018-11-02T05:07:21.565Z,25.67
2018-11-02T05:09:50.502Z,35.87
2018-11-02T05:12:19.493Z,30.40
2018-11-02T05:14:48.381Z,25.10
2018-11-02T05:17:17.330Z,30.17
2018-11-02T05:19:46.297Z,30.27
2018-11-02T05:22:15.650Z,31.67
2018-11-02T05:24:45.730Z,35.27
2018-11-02T05:27:14.753Z,30.70
2018-11-02T05:29:43.694Z,38.93
2018-11-02T05:32:12.653Z,34.00
2018-11-02T05:34:41.578Z,33.20
2018-11-02T05:37:10.470Z,36.43
2018-11-02T05:39:39.517Z,31.00
2018-11-02T05:42:08.401Z,34.33
2018-11-02T05:44:37.300Z,30.53
2018-11-02T05:47:06.487Z,34.33
2018-11-02T05:49:35.452Z,30.63
2018-11-02T05:52:04.365Z,34.63
2018-11-02T05:54:33.308Z,30.80
2018-11-02T05:57:02.237Z,31.33
2018-11-02T05:59:31.137Z,30.27
2018-11-02T06:02:00.074Z,30.50
2018-11-02T06:04:29.033Z,32.93
2018-11-02T06:06:58.033Z,38.27
2018-11-02T06:09:27.190Z,33.50
2018-11-02T06:11:56.109Z,32.77
2018-11-02T06:14:25.020Z,35.03
2018-11-02T06:16:54.028Z,32.00
2018-11-02T06:19:22.916Z,30.00
2018-11-02T06:21:51.797Z,35.70
2018-11-02T06:24:20.759Z,32.97
2018-11-02T06:26:49.669Z,33.30
2018-11-02T06:29:18.641Z,33.47
2018-11-02T06:31:47.550Z,34.03
2018-11-02T06:34:16.554Z,36.10
2018-11-02T06:36:45.425Z,34.50
2018-11-02T06:39:14.352Z,37.30
2018-11-02T06:41:43.692Z,33.63
2018-11-02T06:44:12.610Z,33.60
2018-11-02T06:46:41.542Z,38.83
2018-11-02T06:49:10.460Z,38.07
2018-11-02T06:51:39.345Z,35.90
2018-11-02T06:54:08.334Z,34.73
2018-11-02T06:56:37.260Z,32.53
2018-11-02T06:59:06.372Z,33.57
2018-11-02T07:01:35.273Z,34.90
2018-11-02T07:04:04.666Z,33.83
2018-11-02T07:06:33.606Z,34.50
2018-11-02T07:09:02.510Z,36.60
2018-11-02T07:11:32.011Z,32.67
2018-11-02T07:14:00.954Z,34.70
2018-11-02T07:16:30.508Z,36.43
2018-11-02T07:18:59.431Z,29.37
2018-11-02T07:21:28.353Z,33.87
2018-11-02T07:23:57.550Z,35.00
2018-11-02T07:26:26.471Z,33.73
2018-11-02T07:28:55.844Z,33.23
2018-11-02T07:31:24.745Z,30.50
2018-11-02T07:33:53.674Z,30.37
2018-11-02T07:36:22.566Z,29.67
2018-11-02T07:38:51.481Z,33.33
2018-11-02T07:41:20.497Z,35.47
2018-11-02T07:43:49.852Z,29.37
2018-11-02T07:46:19.069Z,27.80
2018-11-02T07:48:48.115Z,32.20
2018-11-02T07:51:17.018Z,30.47
2018-11-02T07:53:46.000Z,30.87
2018-11-02T07:56:14.952Z,29.90
2018-11-02T07:58:43.866Z,27.07
2018-11-02T08:01:12.817Z,29.80
2018-11-02T08:03:42.118Z,29.33
2018-11-02T08:06:11.038Z,27.33
2018-11-02T08:08:40.056Z,29.73
2018-11-02T08:11:09.135Z,25.90
2018-11-02T08:13:38.038Z,35.90
2018-11-02T08:16:07.869Z,26.97
2018-11-02T08:18:36.796Z,25.80
2018-11-02T08:21:05.732Z,27.43
2018-11-02T08:23:34.653Z,29.40
2018-11-02T08:26:03.946Z,25.77
2018-11-02T08:28:32.850Z,30.93
2018-11-02T08:31:01.782Z,27.07
2018-11-02T08:33:30.755Z,22.83
2018-11-02T08:35:59.761Z,21.90
2018-11-02T08:38:28.675Z,21.47
2018-11-02T08:40:58.031Z,22.63
2018-11-02T08:43:26.967Z,22.40
2018-11-02T08:45:55.899Z,21.20
2018-11-02T08:48:25.001Z,23.57
2018-11-02T08:50:53.936Z,19.87
2018-11-02T08:53:22.853Z,19.67
2018-11-02T08:55:51.805Z,18.03
2018-11-02T08:58:20.849Z,24.10
2018-11-02T09:00:49.829Z,19.90
2018-11-02T09:03:18.950Z,22.27
2018-11-02T09:05:48.004Z,22.73
2018-11-02T09:08:16.949Z,19.80
2018-11-02T09:10:46.041Z,19.10
2018-11-02T09:13:14.994Z,16.87
2018-11-02T09:15:43.884Z,17.57
2018-11-02T09:18:12.822Z,18.23
2018-11-02T09:20:41.756Z,17.60
2018-11-02T09:23:10.645Z,18.80
2018-11-02T09:25:39.553Z,18.17
2018-11-02T09:28:08.710Z,16.47
2018-11-02T09:30:37.583Z,14.27
2018-11-02T09:33:07.058Z,22.70
2018-11-02T09:35:35.997Z,20.37
2018-11-02T09:38:05.305Z,19.97
2018-11-02T09:40:34.388Z,20.07
2018-11-02T09:43:03.231Z,17.83
2018-11-02T09:45:32.178Z,16.83
2018-11-02T09:48:01.118Z,16.13
2018-11-02T09:50:30.208Z,15.83
2018-11-02T09:52:59.110Z,17.70
2018-11-02T09:55:28.040Z,16.20
2018-11-02T09:57:57.001Z,16.17
2018-11-02T10:00:25.956Z,19.10
2018-11-02T10:02:54.921Z,16.17
2018-11-02T10:05:23.913Z,18.73
2018-11-02T10:07:53.357Z,18.90
2018-11-02T10:10:22.321Z,21.30
2018-11-02T10:12:51.285Z,19.60
2018-11-02T10:15:22.922Z,20.37
2018-11-02T10:17:51.914Z,21.77
2018-11-02T10:20:21.345Z,21.63
2018-11-02T10:22:50.585Z,20.40
2018-11-02T10:25:19.882Z,22.67
2018-11-02T10:27:48.907Z,19.03
2018-11-02T10:30:18.001Z,27.37
2018-11-02T10:32:49.377Z,29.17
2018-11-02T10:35:18.533Z,31.30
2018-11-02T10:37:48.785Z,34.70
2018-11-02T10:40:18.821Z,30.47
2018-11-02T10:42:54.469Z,33.00
2018-11-02T10:45:25.787Z,31.77
2018-11-02T10:47:54.855Z,31.87
2018-11-02T10:50:23.873Z,35.90
2018-11-02T10:52:52.797Z,32.77
2018-11-02T10:55:21.713Z,37.90
2018-11-02T10:57:50.712Z,36.37
2018-11-02T11:00:24.961Z,34.20
2018-11-02T11:02:54.225Z,37.17
2018-11-02T11:05:23.270Z,37.97
2018-11-02T11:07:52.251Z,42.03
2018-11-02T11:10:21.294Z,40.17
2018-11-02T11:12:50.483Z,34.83
2018-11-02T11:15:19.268Z,35.93
2018-11-02T11:17:48.217Z,30.03
2018-11-02T11:20:17.660Z,28.00
2018-11-02T11:22:46.669Z,24.80
2018-11-02T11:25:16.439Z,24.37
2018-11-02T11:27:45.809Z,26.50
2018-11-02T11:30:18.991Z,25.00
2018-11-02T11:32:49.575Z,22.33
2018-11-02T11:35:19.269Z,22.30
2018-11-02T11:37:48.257Z,23.00
2018-11-02T11:40:18.579Z,23.70
2018-11-02T11:42:48.034Z,27.67
2018-11-02T11:45:19.019Z,23.20
2018-11-02T11:47:48.373Z,25.43
2018-11-02T11:50:20.416Z,25.00
2018-11-02T11:52:50.816Z,22.63
2018-11-02T11:55:20.008Z,21.20
2018-11-02T11:57:48.953Z,20.03
2018-11-02T12:00:20.449Z,24.33
2018-11-02T12:02:50.466Z,17.60
2018-11-02T12:05:21.189Z,19.10
2018-11-02T12:07:50.277Z,18.07
2018-11-02T12:10:22.766Z,21.67
2018-11-02T12:12:52.072Z,16.67
2018-11-02T12:15:22.066Z,18.63
2018-11-02T12:17:51.310Z,15.03
2018-11-02T12:20:22.617Z,18.17
2018-11-02T12:22:53.029Z,20.70
2018-11-02T12:25:22.438Z,19.27
2018-11-02T12:27:51.374Z,19.03
2018-11-02T12:30:20.348Z,16.77
2018-11-02T12:32:49.370Z,17.47
2018-11-02T12:35:19.193Z,23.80
2018-11-02T12:37:48.176Z,19.90
2018-11-02T12:40:19.282Z,20.83
2018-11-02T12:42:49.299Z,14.07
2018-11-02T12:45:19.393Z,21.03
2018-11-02T12:47:48.609Z,17.43
2018-11-02T12:50:22.754Z,19.77
2018-11-02T12:52:52.632Z,18.10
2018-11-02T12:55:22.357Z,17.90
2018-11-02T12:57:51.301Z,17.37
2018-11-02T13:00:21.738Z,19.03
2018-11-02T13:02:51.414Z,17.50
2018-11-02T13:05:20.809Z,18.87
2018-11-02T13:07:50.013Z,18.23
2018-11-02T13:10:20.102Z,18.70
2018-11-02T13:12:49.156Z,20.83
2018-11-02T13:15:22.559Z,21.43
2018-11-02T13:17:51.778Z,18.80
2018-11-02T13:20:20.787Z,17.33
2018-11-02T13:22:50.852Z,20.50
2018-11-02T13:25:21.009Z,21.10
2018-11-02T13:27:50.773Z,19.67
2018-11-02T13:30:19.790Z,21.73
2018-11-02T13:32:48.645Z,24.00
2018-11-02T13:35:19.357Z,22.73
2018-11-02T13:37:48.969Z,20.63
2018-11-02T13:40:18.633Z,21.73
2018-11-02T13:42:47.623Z,21.73
2018-11-02T13:45:17.641Z,23.33
2018-11-02T13:47:46.650Z,21.30
2018-11-02T13:50:15.656Z,21.50
2018-11-02T13:52:44.999Z,24.70
2018-11-02T13:55:14.430Z,23.37
2018-11-02T13:57:43.873Z,24.60
2018-11-02T14:00:14.233Z,23.13
2018-11-02T14:02:43.133Z,24.00
2018-11-02T14:05:13.619Z,26.53
2018-11-02T14:07:42.961Z,23.07
2018-11-02T14:10:12.975Z,25.67
2018-11-02T14:12:42.320Z,26.47
2018-11-02T14:15:15.479Z,24.03
2018-11-02T14:17:44.647Z,26.03
2018-11-02T14:20:14.293Z,25.03
2018-11-02T14:22:43.241Z,29.10
2018-11-02T14:25:13.640Z,25.33
2018-11-02T14:27:42.609Z,23.77
2018-11-02T14:30:14.974Z,25.70
2018-11-02T14:32:44.062Z,25.77
2018-11-02T14:35:13.023Z,27.47
2018-11-02T14:37:42.018Z,25.23
2018-11-02T14:40:11.986Z,25.37
2018-11-02T14:42:41.676Z,30.37
2018-11-02T14:45:12.607Z,26.03
2018-11-02T14:47:41.577Z,29.43
2018-11-02T14:50:11.870Z,28.03
2018-11-02T14:52:40.841Z,26.00
2018-11-02T14:55:10.449Z,29.27
2018-11-02T14:57:39.708Z,31.33
2018-11-02T15:00:10.578Z,28.60
2018-11-02T15:02:40.201Z,29.10
2018-11-02T15:05:11.343Z,27.03
2018-11-02T15:07:40.789Z,25.87
2018-11-02T15:10:10.186Z,23.83
2018-11-02T15:12:39.630Z,24.60
2018-11-02T15:15:10.122Z,27.90
2018-11-02T15:17:39.577Z,28.13
2018-11-02T15:20:10.806Z,29.30
2018-11-02T15:22:39.730Z,32.07
2018-11-02T15:25:09.145Z,30.73
2018-11-02T15:27:38.268Z,34.57
2018-11-02T15:30:10.122Z,28.57
2018-11-02T15:32:39.426Z,28.50
2018-11-02T15:35:08.891Z,30.07
2018-11-02T15:37:37.806Z,31.40
2018-11-02T15:40:07.513Z,34.50
2018-11-02T15:42:36.501Z,32.57
2018-11-02T15:45:07.606Z,33.90
2018-11-02T15:47:36.803Z,34.37
2018-11-02T15:50:06.840Z,36.07
2018-11-02T15:52:35.782Z,40.30
2018-11-02T15:55:04.749Z,38.43
2018-11-02T15:57:33.630Z,32.43
2018-11-02T16:00:02.898Z,37.90
2018-11-02T16:02:31.886Z,34.00
2018-11-02T16:05:02.775Z,36.00
2018-11-02T16:07:31.808Z,33.67
2018-11-02T16:10:00.762Z,39.50
2018-11-02T16:12:29.726Z,34.47
2018-11-02T16:14:58.748Z,37.60
2018-11-02T16:17:27.690Z,35.73
2018-11-02T16:19:56.776Z,32.53
2018-11-02T16:22:25.663Z,37.47
2018-11-02T16:24:54.631Z,34.87
2018-11-02T16:27:23.541Z,38.20
2018-11-02T16:29:52.548Z,29.73
2018-11-02T16:32:21.489Z,32.33
2018-11-02T16:34:50.427Z,33.57
2018-11-02T16:37:19.440Z,30.73
2018-11-02T16:39:49.325Z,29.80
2018-11-02T16:42:18.264Z,31.40
2018-11-02T16:44:47.372Z,34.40
2018-11-02T16:47:17.118Z,32.40
2018-11-02T16:49:46.089Z,32.93
2018-11-02T16:52:14.996Z,32.47
2018-11-02T16:54:44.026Z,35.50
2018-11-02T16:57:12.952Z,42.30
2018-11-02T16:59:41.874Z,36.17
2018-11-02T17:02:10.829Z,36.77
2018-11-02T17:04:39.970Z,29.93
2018-11-02T17:07:09.067Z,28.80
2018-11-02T17:09:37.986Z,27.17
2018-11-02T17:12:07.328Z,29.33
2018-11-02T17:14:36.633Z,25.80
2018-11-02T17:17:05.654Z,28.93
2018-11-02T17:19:34.910Z,21.60
2018-11-02T17:22:03.881Z,23.37
2018-11-02T17:24:32.823Z,19.37
2018-11-02T17:27:02.650Z,21.10
2018-11-02T17:29:31.557Z,17.47
2018-11-02T17:32:00.980Z,15.67
2018-11-02T17:34:30.196Z,15.37
2018-11-02T17:36:59.393Z,14.50
2018-11-02T17:39:28.630Z,15.80
2018-11-02T17:41:57.781Z,15.47
2018-11-02T17:44:26.899Z,18.07
2018-11-02T17:46:55.826Z,15.27
2018-11-02T17:49:24.750Z,17.70
2018-11-02T17:51:53.893Z,16.70
2018-11-02T17:54:22.810Z,17.57
2018-11-02T17:56:51.779Z,14.97
2018-11-02T17:59:20.722Z,14.80
2018-11-02T18:01:49.850Z,14.10
2018-11-02T18:04:18.874Z,15.40
2018-11-02T18:06:48.212Z,18.90
2018-11-02T18:09:17.189Z,17.43
2018-11-02T18:11:46.116Z,17.33
2018-11-02T18:14:15.686Z,17.93
2018-11-02T18:16:44.987Z,17.73
2018-11-02T18:19:14.152Z,17.77
2018-11-02T18:21:43.069Z,17.13
2018-11-02T18:24:12.047Z,15.37
2018-11-02T18:26:40.954Z,18.33
2018-11-02T18:29:09.874Z,16.00
2018-11-02T18:31:38.834Z,16.23
2018-11-02T18:34:07.788Z,20.53
2018-11-02T18:36:36.753Z,14.73
2018-11-02T18:39:09.892Z,14.30
2018-11-02T18:41:38.840Z,16.00
2018-11-02T18:44:07.770Z,18.03
2018-11-02T18:46:36.679Z,17.37
2018-11-02T18:49:05.962Z,19.73
2018-11-02T18:51:34.869Z,17.00
2018-11-02T18:54:04.110Z,17.10
2018-11-02T18:56:33.026Z,16.07
2018-11-02T18:59:01.994Z,16.77
2018-11-02T19:01:30.933Z,16.83
2018-11-02T19:03:59.978Z,18.90
2018-11-02T19:06:28.959Z,18.17
2018-11-02T19:08:57.882Z,18.13
2018-11-02T19:11:26.950Z,18.47
2018-11-02T19:13:56.248Z,18.60
2018-11-02T19:16:25.163Z,15.47
2018-11-02T19:18:54.085Z,15.90
2018-11-02T19:21:23.059Z,15.73
2018-11-02T19:23:52.007Z,13.20
2018-11-02T19:26:20.944Z,16.23
2018-11-02T19:28:49.869Z,11.73
2018-11-02T19:31:19.053Z,14.77
2018-11-02T19:33:48.297Z,14.13
2018-11-02T19:36:17.235Z,11.67
2018-11-02T19:38:46.268Z,14.17
2018-11-02T19:41:15.245Z,12.90
2018-11-02T19:43:44.150Z,15.50
2018-11-02T19:46:13.118Z,13.33
2018-11-02T19:48:42.127Z,12.43
2018-11-02T19:51:11.084Z,14.47
2018-11-02T19:53:40.067Z,13.50
2018-11-02T19:56:09.354Z,13.40
2018-11-02T19:58:38.650Z,14.73
2018-11-02T20:01:07.732Z,13.27
2018-11-02T20:03:36.585Z,16.07
2018-11-02T20:06:05.798Z,15.03
2018-11-02T20:08:35.809Z,12.87
2018-11-02T20:11:05.129Z,13.33
2018-11-02T20:13:34.453Z,14.37
2018-11-02T20:16:03.416Z,12.63
2018-11-02T20:18:32.703Z,13.17
2018-11-02T20:21:01.699Z,13.57
2018-11-02T20:23:30.746Z,14.33
2018-11-02T20:25:59.679Z,13.73
2018-11-02T20:28:28.910Z,16.63
2018-11-02T20:30:57.862Z,13.43
2018-11-02T20:33:26.783Z,13.37
2018-11-02T20:35:55.706Z,11.90
2018-11-02T20:38:24.653Z,16.13
2018-11-02T20:40:53.538Z,15.60
2018-11-02T20:43:22.733Z,13.97
2018-11-02T20:45:52.037Z,13.67
2018-11-02T20:48:20.962Z,13.93
2018-11-02T20:50:49.890Z,12.90
2018-11-02T20:53:18.830Z,17.13
2018-11-02T20:55:48.213Z,15.13
2018-11-02T20:58:17.414Z,12.90
2018-11-02T21:00:46.366Z,15.00
2018-11-02T21:03:15.293Z,16.70
2018-11-02T21:05:44.855Z,12.67
2018-11-02T21:08:14.170Z,15.53
2018-11-02T21:10:43.145Z,13.40
2018-11-02T21:13:12.162Z,12.67
2018-11-02T21:15:41.312Z,14.53
2018-11-02T21:18:10.330Z,13.43
2018-11-02T21:20:39.632Z,13.00
2018-11-02T21:23:08.932Z,15.33
2018-11-02T21:25:38.449Z,14.17
2018-11-02T21:28:07.701Z,14.63
2018-11-02T21:30:37.058Z,13.70
2018-11-02T21:33:06.045Z,11.77
2018-11-02T21:35:35.670Z,12.90
2018-11-02T21:38:05.144Z,15.10
2018-11-02T21:40:34.075Z,13.67
2018-11-02T21:43:03.001Z,14.20
2018-11-02T21:45:32.642Z,13.97
2018-11-02T21:48:02.890Z,10.43
2018-11-02T21:50:31.786Z,12.93
2018-11-02T21:53:00.861Z,13.03
2018-11-02T21:55:29.746Z,12.30
2018-11-02T21:57:58.625Z,10.90
2018-11-02T22:00:27.648Z,11.20
2018-11-02T22:02:56.877Z,11.30
2018-11-02T22:05:26.097Z,11.00
2018-11-02T22:07:55.328Z,8.83
2018-11-02T22:10:24.883Z,8.70
2018-11-02T22:12:54.121Z,11.13
2018-11-02T22:15:23.379Z,10.50
2018-11-02T22:17:52.269Z,9.83
2018-11-02T22:20:21.210Z,11.80
2018-11-02T22:22:50.109Z,10.90
2018-11-02T22:25:19.585Z,8.50
2018-11-02T22:27:48.469Z,8.40
2018-11-02T22:30:18.394Z,7.63
2018-11-02T22:32:47.573Z,8.27
2018-11-02T22:35:16.919Z,9.30
2018-11-02T22:37:46.903Z,10.50
2018-11-02T22:40:16.026Z,12.30
2018-11-02T22:42:45.321Z,10.07
2018-11-02T22:45:15.370Z,8.40
2018-11-02T22:47:49.896Z,8.10
2018-11-02T22:50:18.859Z,6.73
2018-11-02T22:52:47.762Z,8.07
2018-11-02T22:55:16.693Z,6.67
2018-11-02T22:57:45.649Z,7.63
2018-11-02T23:00:17.077Z,6.63
2018-11-02T23:02:46.933Z,8.30
2018-11-02T23:05:16.278Z,5.70
2018-11-02T23:07:45.529Z,5.17
2018-11-02T23:10:14.873Z,5.73
2018-11-02T23:12:43.873Z,7.80
2018-11-02T23:15:13.313Z,6.43
2018-11-02T23:17:42.565Z,7.27
2018-11-02T23:20:13.699Z,10.10
2018-11-02T23:22:43.365Z,7.10
2018-11-02T23:25:13.079Z,4.83
2018-11-02T23:27:43.394Z,5.30
2018-11-02T23:30:13.312Z,5.33
2018-11-02T23:32:42.645Z,3.77
2018-11-02T23:35:11.915Z,5.70
2018-11-02T23:37:40.863Z,5.00
2018-11-02T23:40:11.125Z,4.90
2018-11-02T23:42:40.115Z,6.27
2018-11-02T23:45:10.124Z,5.10
2018-11-02T23:47:39.362Z,5.93
2018-11-02T23:50:09.922Z,3.77
2018-11-02T23:52:38.852Z,3.50
2018-11-02T23:55:08.012Z,6.43
2018-11-02T23:57:36.992Z,5.17
